sensor_id;sensor_type;location;lat;lon;timestamp;P1;durP1;ratioP1;P2;durP2;ratioP2
966;SDS011;56108;48.730;9.304;2023-03-23T00:00:11;2.00;;;1.90;;
966;SDS011;56108;48.730;9.304;2023-03-23T00:02:22;3.22;;;2.55;;
966;SDS011;56108;48.730;9.304;2023-03-23T00:04:34;2.50;;;2.30;;
966;SDS011;56108;48.730;9.304;2023-03-23T00:06:44;2.42;;;2.22;;
966;SDS011;56108;48.730;9.304;2023-03-23T00:08:54;2.00;;;1.90;;
966;SDS011;56108;48.730;9.304;2023-03-23T00:11:04;2.22;;;2.05;;
966;SDS011;56108;48.730;9.304;2023-03-23T00:13:12;2.80;;;2.60;;
966;SDS011;56108;48.730;9.304;2023-03-23T00:15:24;2.20;;;2.00;;
966;SDS011;56108;48.730;9.304;2023-03-23T00:17:35;3.70;;;2.58;;
966;SDS011;56108;48.730;9.304;2023-03-23T00:19:46;2.50;;;2.30;;
966;SDS011;56108;48.730;9.304;2023-03-23T00:21:54;2.53;;;2.33;;
966;SDS011;56108;48.730;9.304;2023-03-23T00:24:06;2.70;;;2.50;;
966;SDS011;56108;48.730;9.304;2023-03-23T00:26:16;2.60;;;2.40;;
966;SDS011;56108;48.730;9.304;2023-03-23T00:28:25;2.30;;;2.10;;
966;SDS011;56108;48.730;9.304;2023-03-23T00:30:34;2.50;;;2.20;;
966;SDS011;56108;48.730;9.304;2023-03-23T00:32:42;2.97;;;2.67;;
966;SDS011;56108;48.730;9.304;2023-03-23T00:34:53;2.55;;;2.33;;
966;SDS011;56108;48.730;9.304;2023-03-23T00:37:03;2.13;;;2.03;;
966;SDS011;56108;48.730;9.304;2023-03-23T00:39:12;3.88;;;2.42;;
966;SDS011;56108;48.730;9.304;2023-03-23T00:41:20;3.30;;;2.42;;
966;SDS011;56108;48.730;9.304;2023-03-23T00:43:29;2.58;;;2.38;;
966;SDS011;56108;48.730;9.304;2023-03-23T00:45:40;2.72;;;2.50;;
966;SDS011;56108;48.730;9.304;2023-03-23T00:47:50;2.90;;;2.58;;
966;SDS011;56108;48.730;9.304;2023-03-23T00:50:01;2.60;;;2.40;;
966;SDS011;56108;48.730;9.304;2023-03-23T00:52:09;2.33;;;2.22;;
966;SDS011;56108;48.730;9.304;2023-03-23T00:54:18;2.63;;;2.42;;
966;SDS011;56108;48.730;9.304;2023-03-23T00:56:27;2.58;;;2.38;;
966;SDS011;56108;48.730;9.304;2023-03-23T00:58:35;2.28;;;2.10;;
966;SDS011;56108;48.730;9.304;2023-03-23T01:00:44;2.75;;;2.55;;
966;SDS011;56108;48.730;9.304;2023-03-23T01:02:52;2.53;;;2.33;;
966;SDS011;56108;48.730;9.304;2023-03-23T01:05:04;2.92;;;2.72;;
966;SDS011;56108;48.730;9.304;2023-03-23T01:07:12;2.30;;;2.20;;
966;SDS011;56108;48.730;9.304;2023-03-23T01:09:22;2.63;;;2.40;;
966;SDS011;56108;48.730;9.304;2023-03-23T01:11:31;2.35;;;2.25;;
966;SDS011;56108;48.730;9.304;2023-03-23T01:13:39;2.80;;;2.60;;
966;SDS011;56108;48.730;9.304;2023-03-23T01:15:47;3.20;;;2.70;;
966;SDS011;56108;48.730;9.304;2023-03-23T01:17:55;2.60;;;2.40;;
966;SDS011;56108;48.730;9.304;2023-03-23T01:20:07;3.05;;;2.80;;
966;SDS011;56108;48.730;9.304;2023-03-23T01:22:17;2.22;;;2.10;;
966;SDS011;56108;48.730;9.304;2023-03-23T01:24:25;2.92;;;2.72;;
966;SDS011;56108;48.730;9.304;2023-03-23T01:26:33;2.90;;;2.70;;
966;SDS011;56108;48.730;9.304;2023-03-23T01:28:42;2.70;;;2.47;;
966;SDS011;56108;48.730;9.304;2023-03-23T01:30:51;2.65;;;2.50;;
966;SDS011;56108;48.730;9.304;2023-03-23T01:33:00;3.55;;;2.50;;
966;SDS011;56108;48.730;9.304;2023-03-23T01:35:11;3.00;;;2.50;;
966;SDS011;56108;48.730;9.304;2023-03-23T01:37:20;3.47;;;2.70;;
966;SDS011;56108;48.730;9.304;2023-03-23T01:39:32;2.60;;;2.40;;
966;SDS011;56108;48.730;9.304;2023-03-23T01:41:40;3.20;;;2.90;;
966;SDS011;56108;48.730;9.304;2023-03-23T01:43:58;3.25;;;3.05;;
966;SDS011;56108;48.730;9.304;2023-03-23T01:46:14;4.10;;;3.80;;
966;SDS011;56108;48.730;9.304;2023-03-23T01:48:23;4.05;;;3.65;;
966;SDS011;56108;48.730;9.304;2023-03-23T01:50:38;3.88;;;3.58;;
966;SDS011;56108;48.730;9.304;2023-03-23T01:52:49;4.20;;;3.90;;
966;SDS011;56108;48.730;9.304;2023-03-23T01:55:00;4.75;;;3.50;;
966;SDS011;56108;48.730;9.304;2023-03-23T01:57:09;3.42;;;3.13;;
966;SDS011;56108;48.730;9.304;2023-03-23T01:59:22;4.00;;;3.25;;
966;SDS011;56108;48.730;9.304;2023-03-23T02:01:54;3.80;;;3.50;;
966;SDS011;56108;48.730;9.304;2023-03-23T02:04:05;4.00;;;3.60;;
966;SDS011;56108;48.730;9.304;2023-03-23T02:06:18;4.22;;;3.83;;
966;SDS011;56108;48.730;9.304;2023-03-23T02:08:52;4.00;;;3.60;;
966;SDS011;56108;48.730;9.304;2023-03-23T02:11:14;5.63;;;4.20;;
966;SDS011;56108;48.730;9.304;2023-03-23T02:13:26;3.50;;;3.30;;
966;SDS011;56108;48.730;9.304;2023-03-23T02:15:38;3.25;;;3.00;;
966;SDS011;56108;48.730;9.304;2023-03-23T02:17:55;4.15;;;3.10;;
966;SDS011;56108;48.730;9.304;2023-03-23T02:20:17;3.75;;;2.70;;
966;SDS011;56108;48.730;9.304;2023-03-23T02:22:53;5.30;;;3.90;;
966;SDS011;56108;48.730;9.304;2023-03-23T02:25:24;4.60;;;3.35;;
966;SDS011;56108;48.730;9.304;2023-03-23T02:27:44;3.42;;;3.20;;
966;SDS011;56108;48.730;9.304;2023-03-23T02:30:08;5.35;;;4.18;;
966;SDS011;56108;48.730;9.304;2023-03-23T02:32:28;4.38;;;4.07;;
966;SDS011;56108;48.730;9.304;2023-03-23T02:34:57;5.43;;;4.22;;
966;SDS011;56108;48.730;9.304;2023-03-23T02:37:09;3.40;;;3.10;;
966;SDS011;56108;48.730;9.304;2023-03-23T02:39:22;3.97;;;3.60;;
966;SDS011;56108;48.730;9.304;2023-03-23T02:41:36;4.82;;;3.58;;
966;SDS011;56108;48.730;9.304;2023-03-23T02:43:48;3.70;;;3.40;;
966;SDS011;56108;48.730;9.304;2023-03-23T02:45:57;3.28;;;2.97;;
966;SDS011;56108;48.730;9.304;2023-03-23T02:48:07;4.45;;;3.50;;
966;SDS011;56108;48.730;9.304;2023-03-23T02:50:20;6.15;;;3.58;;
966;SDS011;56108;48.730;9.304;2023-03-23T02:52:31;3.40;;;3.10;;
966;SDS011;56108;48.730;9.304;2023-03-23T02:54:43;3.60;;;3.30;;
966;SDS011;56108;48.730;9.304;2023-03-23T02:56:54;4.85;;;4.45;;
966;SDS011;56108;48.730;9.304;2023-03-23T02:59:06;4.45;;;3.70;;
966;SDS011;56108;48.730;9.304;2023-03-23T03:03:53;4.20;;;3.80;;
966;SDS011;56108;48.730;9.304;2023-03-23T03:06:10;4.13;;;3.65;;
966;SDS011;56108;48.730;9.304;2023-03-23T03:08:29;4.40;;;4.00;;
966;SDS011;56108;48.730;9.304;2023-03-23T03:10:47;4.03;;;3.72;;
966;SDS011;56108;48.730;9.304;2023-03-23T03:13:02;4.45;;;4.15;;
966;SDS011;56108;48.730;9.304;2023-03-23T03:15:19;4.38;;;3.75;;
966;SDS011;56108;48.730;9.304;2023-03-23T03:17:34;4.35;;;3.75;;
966;SDS011;56108;48.730;9.304;2023-03-23T03:19:48;4.32;;;3.95;;
966;SDS011;56108;48.730;9.304;2023-03-23T03:22:06;3.80;;;3.50;;
966;SDS011;56108;48.730;9.304;2023-03-23T03:24:18;4.55;;;3.55;;
966;SDS011;56108;48.730;9.304;2023-03-23T03:26:29;5.82;;;3.28;;
966;SDS011;56108;48.730;9.304;2023-03-23T03:28:55;4.00;;;3.63;;
966;SDS011;56108;48.730;9.304;2023-03-23T03:31:05;3.65;;;3.35;;
966;SDS011;56108;48.730;9.304;2023-03-23T03:33:14;3.53;;;3.20;;
966;SDS011;56108;48.730;9.304;2023-03-23T03:35:25;3.83;;;3.53;;
966;SDS011;56108;48.730;9.304;2023-03-23T03:37:37;4.28;;;3.88;;
966;SDS011;56108;48.730;9.304;2023-03-23T03:39:46;4.10;;;3.70;;
966;SDS011;56108;48.730;9.304;2023-03-23T03:41:56;3.65;;;3.35;;
966;SDS011;56108;48.730;9.304;2023-03-23T03:44:04;5.40;;;3.70;;
966;SDS011;56108;48.730;9.304;2023-03-23T03:46:15;3.20;;;2.90;;
966;SDS011;56108;48.730;9.304;2023-03-23T03:48:23;3.78;;;3.00;;
966;SDS011;56108;48.730;9.304;2023-03-23T03:50:31;3.30;;;3.10;;
966;SDS011;56108;48.730;9.304;2023-03-23T03:52:42;3.55;;;3.25;;
966;SDS011;56108;48.730;9.304;2023-03-23T03:54:50;3.50;;;3.20;;
966;SDS011;56108;48.730;9.304;2023-03-23T03:56:58;4.18;;;3.47;;
966;SDS011;56108;48.730;9.304;2023-03-23T03:59:25;3.17;;;2.97;;
966;SDS011;56108;48.730;9.304;2023-03-23T04:01:54;3.70;;;3.40;;
966;SDS011;56108;48.730;9.304;2023-03-23T04:04:03;3.38;;;3.13;;
966;SDS011;56108;48.730;9.304;2023-03-23T04:06:13;3.20;;;3.00;;
966;SDS011;56108;48.730;9.304;2023-03-23T04:08:25;4.57;;;3.05;;
966;SDS011;56108;48.730;9.304;2023-03-23T04:10:34;3.47;;;3.17;;
966;SDS011;56108;48.730;9.304;2023-03-23T04:12:46;3.70;;;3.40;;
966;SDS011;56108;48.730;9.304;2023-03-23T04:15:13;3.25;;;3.05;;
966;SDS011;56108;48.730;9.304;2023-03-23T04:17:21;4.05;;;3.60;;
966;SDS011;56108;48.730;9.304;2023-03-23T04:19:30;3.45;;;3.22;;
966;SDS011;56108;48.730;9.304;2023-03-23T04:21:39;3.72;;;3.42;;
966;SDS011;56108;48.730;9.304;2023-03-23T04:23:50;3.53;;;3.22;;
966;SDS011;56108;48.730;9.304;2023-03-23T04:26:00;6.28;;;3.08;;
966;SDS011;56108;48.730;9.304;2023-03-23T04:28:21;3.30;;;3.10;;
966;SDS011;56108;48.730;9.304;2023-03-23T04:30:53;3.03;;;2.72;;
966;SDS011;56108;48.730;9.304;2023-03-23T04:33:08;3.47;;;3.28;;
966;SDS011;56108;48.730;9.304;2023-03-23T04:35:26;5.05;;;2.88;;
966;SDS011;56108;48.730;9.304;2023-03-23T04:37:51;3.10;;;2.90;;
966;SDS011;56108;48.730;9.304;2023-03-23T04:40:03;3.15;;;2.90;;
966;SDS011;56108;48.730;9.304;2023-03-23T04:42:17;2.80;;;2.60;;
966;SDS011;56108;48.730;9.304;2023-03-23T04:44:46;2.97;;;2.67;;
966;SDS011;56108;48.730;9.304;2023-03-23T04:47:08;3.60;;;3.30;;
966;SDS011;56108;48.730;9.304;2023-03-23T04:49:25;2.60;;;2.40;;
966;SDS011;56108;48.730;9.304;2023-03-23T04:51:47;3.00;;;2.80;;
966;SDS011;56108;48.730;9.304;2023-03-23T04:54:13;3.10;;;2.90;;
966;SDS011;56108;48.730;9.304;2023-03-23T04:56:29;3.10;;;2.90;;
966;SDS011;56108;48.730;9.304;2023-03-23T04:58:43;3.47;;;2.80;;
966;SDS011;56108;48.730;9.304;2023-03-23T05:01:10;3.50;;;3.20;;
966;SDS011;56108;48.730;9.304;2023-03-23T05:03:29;3.08;;;2.83;;
966;SDS011;56108;48.730;9.304;2023-03-23T05:05:37;3.20;;;3.00;;
966;SDS011;56108;48.730;9.304;2023-03-23T05:07:45;3.53;;;3.22;;
966;SDS011;56108;48.730;9.304;2023-03-23T05:10:05;3.40;;;3.10;;
966;SDS011;56108;48.730;9.304;2023-03-23T05:12:33;3.10;;;2.60;;
966;SDS011;56108;48.730;9.304;2023-03-23T05:14:44;3.42;;;2.85;;
966;SDS011;56108;48.730;9.304;2023-03-23T05:16:55;3.38;;;3.08;;
966;SDS011;56108;48.730;9.304;2023-03-23T05:19:04;2.70;;;2.50;;
966;SDS011;56108;48.730;9.304;2023-03-23T05:21:14;3.80;;;2.30;;
966;SDS011;56108;48.730;9.304;2023-03-23T05:23:26;3.00;;;2.70;;
966;SDS011;56108;48.730;9.304;2023-03-23T05:25:42;3.65;;;3.35;;
966;SDS011;56108;48.730;9.304;2023-03-23T05:27:57;3.67;;;3.38;;
966;SDS011;56108;48.730;9.304;2023-03-23T05:30:18;2.80;;;2.60;;
966;SDS011;56108;48.730;9.304;2023-03-23T05:32:27;2.80;;;2.60;;
966;SDS011;56108;48.730;9.304;2023-03-23T05:34:51;2.78;;;2.58;;
966;SDS011;56108;48.730;9.304;2023-03-23T05:37:01;3.28;;;3.00;;
966;SDS011;56108;48.730;9.304;2023-03-23T05:39:26;3.33;;;2.90;;
966;SDS011;56108;48.730;9.304;2023-03-23T05:41:53;2.85;;;2.45;;
966;SDS011;56108;48.730;9.304;2023-03-23T05:44:13;2.92;;;2.72;;
966;SDS011;56108;48.730;9.304;2023-03-23T05:46:23;3.58;;;3.15;;
966;SDS011;56108;48.730;9.304;2023-03-23T05:48:36;3.15;;;2.95;;
966;SDS011;56108;48.730;9.304;2023-03-23T05:50:49;2.60;;;2.40;;
966;SDS011;56108;48.730;9.304;2023-03-23T05:53:00;2.63;;;2.38;;
966;SDS011;56108;48.730;9.304;2023-03-23T05:55:11;2.28;;;2.17;;
966;SDS011;56108;48.730;9.304;2023-03-23T05:57:25;2.53;;;2.33;;
966;SDS011;56108;48.730;9.304;2023-03-23T06:00:03;2.72;;;2.55;;
966;SDS011;56108;48.730;9.304;2023-03-23T06:02:20;4.30;;;2.60;;
966;SDS011;56108;48.730;9.304;2023-03-23T06:04:30;2.60;;;2.40;;
966;SDS011;56108;48.730;9.304;2023-03-23T06:06:47;4.30;;;3.25;;
966;SDS011;56108;48.730;9.304;2023-03-23T06:08:57;3.20;;;2.90;;
966;SDS011;56108;48.730;9.304;2023-03-23T06:11:18;2.78;;;2.58;;
966;SDS011;56108;48.730;9.304;2023-03-23T06:13:44;2.72;;;2.45;;
966;SDS011;56108;48.730;9.304;2023-03-23T06:15:57;2.92;;;2.72;;
966;SDS011;56108;48.730;9.304;2023-03-23T06:18:23;3.10;;;2.90;;
966;SDS011;56108;48.730;9.304;2023-03-23T06:20:51;2.47;;;2.28;;
966;SDS011;56108;48.730;9.304;2023-03-23T06:23:19;2.90;;;2.70;;
966;SDS011;56108;48.730;9.304;2023-03-23T06:25:28;2.80;;;2.60;;
966;SDS011;56108;48.730;9.304;2023-03-23T06:27:38;3.50;;;3.00;;
966;SDS011;56108;48.730;9.304;2023-03-23T06:29:46;2.53;;;2.33;;
966;SDS011;56108;48.730;9.304;2023-03-23T06:31:58;2.28;;;2.08;;
966;SDS011;56108;48.730;9.304;2023-03-23T06:34:09;3.50;;;3.20;;
966;SDS011;56108;48.730;9.304;2023-03-23T06:36:35;3.83;;;2.80;;
966;SDS011;56108;48.730;9.304;2023-03-23T06:38:48;2.50;;;2.30;;
966;SDS011;56108;48.730;9.304;2023-03-23T06:41:04;2.95;;;2.50;;
966;SDS011;56108;48.730;9.304;2023-03-23T06:43:15;3.13;;;2.92;;
966;SDS011;56108;48.730;9.304;2023-03-23T06:45:29;3.80;;;3.50;;
966;SDS011;56108;48.730;9.304;2023-03-23T06:47:58;3.92;;;3.38;;
966;SDS011;56108;48.730;9.304;2023-03-23T06:50:08;3.30;;;3.00;;
966;SDS011;56108;48.730;9.304;2023-03-23T06:52:17;2.88;;;2.67;;
966;SDS011;56108;48.730;9.304;2023-03-23T06:54:27;3.60;;;2.80;;
966;SDS011;56108;48.730;9.304;2023-03-23T06:56:41;3.17;;;2.85;;
966;SDS011;56108;48.730;9.304;2023-03-23T06:58:49;2.75;;;2.55;;
966;SDS011;56108;48.730;9.304;2023-03-23T07:00:59;2.90;;;2.70;;
966;SDS011;56108;48.730;9.304;2023-03-23T07:03:17;2.58;;;2.38;;
966;SDS011;56108;48.730;9.304;2023-03-23T07:05:25;2.60;;;2.40;;
966;SDS011;56108;48.730;9.304;2023-03-23T07:07:34;3.97;;;2.42;;
966;SDS011;56108;48.730;9.304;2023-03-23T07:09:55;2.85;;;2.65;;
966;SDS011;56108;48.730;9.304;2023-03-23T07:12:04;3.17;;;2.65;;
966;SDS011;56108;48.730;9.304;2023-03-23T07:14:18;3.30;;;3.10;;
966;SDS011;56108;48.730;9.304;2023-03-23T07:16:28;3.03;;;2.72;;
966;SDS011;56108;48.730;9.304;2023-03-23T07:18:40;3.63;;;3.00;;
966;SDS011;56108;48.730;9.304;2023-03-23T07:20:48;2.40;;;2.28;;
966;SDS011;56108;48.730;9.304;2023-03-23T07:22:59;2.38;;;2.17;;
966;SDS011;56108;48.730;9.304;2023-03-23T07:25:32;2.58;;;2.45;;
966;SDS011;56108;48.730;9.304;2023-03-23T07:27:44;2.58;;;2.38;;
966;SDS011;56108;48.730;9.304;2023-03-23T07:29:54;3.88;;;2.30;;
966;SDS011;56108;48.730;9.304;2023-03-23T07:32:04;3.33;;;3.13;;
966;SDS011;56108;48.730;9.304;2023-03-23T07:34:15;2.90;;;2.63;;
966;SDS011;56108;48.730;9.304;2023-03-23T07:36:38;2.33;;;2.17;;
966;SDS011;56108;48.730;9.304;2023-03-23T07:38:47;2.95;;;2.75;;
966;SDS011;56108;48.730;9.304;2023-03-23T07:40:55;2.42;;;2.28;;
966;SDS011;56108;48.730;9.304;2023-03-23T07:43:03;2.65;;;2.45;;
966;SDS011;56108;48.730;9.304;2023-03-23T07:45:30;2.72;;;2.28;;
966;SDS011;56108;48.730;9.304;2023-03-23T07:47:39;2.80;;;2.60;;
966;SDS011;56108;48.730;9.304;2023-03-23T07:49:56;2.53;;;2.40;;
966;SDS011;56108;48.730;9.304;2023-03-23T07:52:13;4.07;;;3.05;;
966;SDS011;56108;48.730;9.304;2023-03-23T07:54:22;3.20;;;2.55;;
966;SDS011;56108;48.730;9.304;2023-03-23T07:56:36;2.42;;;2.33;;
966;SDS011;56108;48.730;9.304;2023-03-23T07:59:03;3.03;;;2.72;;
966;SDS011;56108;48.730;9.304;2023-03-23T08:01:14;2.67;;;2.45;;
966;SDS011;56108;48.730;9.304;2023-03-23T08:03:43;3.00;;;2.75;;
966;SDS011;56108;48.730;9.304;2023-03-23T08:06:10;3.08;;;2.80;;
966;SDS011;56108;48.730;9.304;2023-03-23T08:08:36;3.10;;;2.90;;
966;SDS011;56108;48.730;9.304;2023-03-23T08:11:04;2.97;;;2.72;;
966;SDS011;56108;48.730;9.304;2023-03-23T08:13:18;3.15;;;2.78;;
966;SDS011;56108;48.730;9.304;2023-03-23T08:15:45;3.00;;;2.78;;
966;SDS011;56108;48.730;9.304;2023-03-23T08:18:16;3.40;;;2.67;;
966;SDS011;56108;48.730;9.304;2023-03-23T08:20:56;4.00;;;2.78;;
966;SDS011;56108;48.730;9.304;2023-03-23T08:23:27;2.80;;;2.60;;
966;SDS011;56108;48.730;9.304;2023-03-23T08:25:54;3.05;;;2.45;;
966;SDS011;56108;48.730;9.304;2023-03-23T08:28:11;3.05;;;2.85;;
966;SDS011;56108;48.730;9.304;2023-03-23T08:30:55;2.92;;;2.72;;
966;SDS011;56108;48.730;9.304;2023-03-23T08:33:22;3.47;;;3.10;;
966;SDS011;56108;48.730;9.304;2023-03-23T08:35:59;3.08;;;2.75;;
966;SDS011;56108;48.730;9.304;2023-03-23T08:38:17;2.65;;;2.55;;
966;SDS011;56108;48.730;9.304;2023-03-23T08:40:47;3.65;;;3.17;;
966;SDS011;56108;48.730;9.304;2023-03-23T08:43:20;2.95;;;2.75;;
966;SDS011;56108;48.730;9.304;2023-03-23T08:45:46;2.90;;;2.70;;
966;SDS011;56108;48.730;9.304;2023-03-23T08:48:11;3.20;;;3.00;;
966;SDS011;56108;48.730;9.304;2023-03-23T08:50:49;3.75;;;3.40;;
966;SDS011;56108;48.730;9.304;2023-03-23T08:53:12;2.80;;;2.60;;
966;SDS011;56108;48.730;9.304;2023-03-23T08:55:55;2.83;;;2.63;;
966;SDS011;56108;48.730;9.304;2023-03-23T08:58:18;7.03;;;3.00;;
966;SDS011;56108;48.730;9.304;2023-03-23T09:00:44;3.15;;;2.85;;
966;SDS011;56108;48.730;9.304;2023-03-23T09:03:06;3.55;;;3.08;;
966;SDS011;56108;48.730;9.304;2023-03-23T09:05:30;2.88;;;2.67;;
966;SDS011;56108;48.730;9.304;2023-03-23T09:07:54;3.40;;;2.78;;
966;SDS011;56108;48.730;9.304;2023-03-23T09:10:05;3.08;;;2.88;;
966;SDS011;56108;48.730;9.304;2023-03-23T09:12:20;7.57;;;2.90;;
966;SDS011;56108;48.730;9.304;2023-03-23T09:14:28;3.50;;;3.00;;
966;SDS011;56108;48.730;9.304;2023-03-23T09:16:36;2.40;;;2.20;;
966;SDS011;56108;48.730;9.304;2023-03-23T09:18:44;2.60;;;2.50;;
966;SDS011;56108;48.730;9.304;2023-03-23T09:20:54;2.30;;;2.20;;
966;SDS011;56108;48.730;9.304;2023-03-23T09:23:03;2.50;;;2.30;;
966;SDS011;56108;48.730;9.304;2023-03-23T09:25:12;2.20;;;2.10;;
966;SDS011;56108;48.730;9.304;2023-03-23T09:27:27;2.90;;;2.67;;
966;SDS011;56108;48.730;9.304;2023-03-23T09:29:37;3.25;;;2.15;;
966;SDS011;56108;48.730;9.304;2023-03-23T09:31:47;2.20;;;2.10;;
966;SDS011;56108;48.730;9.304;2023-03-23T09:33:55;2.97;;;2.80;;
966;SDS011;56108;48.730;9.304;2023-03-23T09:36:04;2.90;;;2.60;;
966;SDS011;56108;48.730;9.304;2023-03-23T09:38:17;4.18;;;2.92;;
966;SDS011;56108;48.730;9.304;2023-03-23T09:40:26;2.40;;;2.20;;
966;SDS011;56108;48.730;9.304;2023-03-23T09:42:56;2.90;;;2.67;;
966;SDS011;56108;48.730;9.304;2023-03-23T09:45:14;2.75;;;2.22;;
966;SDS011;56108;48.730;9.304;2023-03-23T09:47:31;2.72;;;2.63;;
966;SDS011;56108;48.730;9.304;2023-03-23T09:49:47;2.95;;;2.30;;
966;SDS011;56108;48.730;9.304;2023-03-23T09:52:01;2.00;;;1.90;;
966;SDS011;56108;48.730;9.304;2023-03-23T09:54:16;2.50;;;2.30;;
966;SDS011;56108;48.730;9.304;2023-03-23T09:56:28;2.42;;;2.22;;
966;SDS011;56108;48.730;9.304;2023-03-23T09:58:41;2.60;;;2.40;;
966;SDS011;56108;48.730;9.304;2023-03-23T10:00:56;2.05;;;1.85;;
966;SDS011;56108;48.730;9.304;2023-03-23T10:03:11;3.00;;;2.80;;
966;SDS011;56108;48.730;9.304;2023-03-23T10:05:27;2.65;;;2.45;;
966;SDS011;56108;48.730;9.304;2023-03-23T10:07:38;2.85;;;2.53;;
966;SDS011;56108;48.730;9.304;2023-03-23T10:09:47;3.28;;;2.40;;
966;SDS011;56108;48.730;9.304;2023-03-23T10:12:00;2.50;;;2.40;;
966;SDS011;56108;48.730;9.304;2023-03-23T10:14:20;2.47;;;2.30;;
966;SDS011;56108;48.730;9.304;2023-03-23T10:16:39;2.50;;;2.40;;
966;SDS011;56108;48.730;9.304;2023-03-23T10:18:51;2.80;;;2.60;;
966;SDS011;56108;48.730;9.304;2023-03-23T10:21:06;2.42;;;2.22;;
966;SDS011;56108;48.730;9.304;2023-03-23T10:26:01;3.00;;;2.72;;
966;SDS011;56108;48.730;9.304;2023-03-23T10:28:17;3.17;;;2.95;;
966;SDS011;56108;48.730;9.304;2023-03-23T10:30:31;2.80;;;2.60;;
966;SDS011;56108;48.730;9.304;2023-03-23T10:32:44;3.10;;;2.80;;
966;SDS011;56108;48.730;9.304;2023-03-23T10:34:57;2.72;;;2.50;;
966;SDS011;56108;48.730;9.304;2023-03-23T10:37:09;2.47;;;2.38;;
966;SDS011;56108;48.730;9.304;2023-03-23T10:39:21;3.00;;;2.70;;
966;SDS011;56108;48.730;9.304;2023-03-23T10:41:31;2.90;;;2.40;;
966;SDS011;56108;48.730;9.304;2023-03-23T10:43:39;2.70;;;2.50;;
966;SDS011;56108;48.730;9.304;2023-03-23T10:45:52;2.55;;;2.40;;
966;SDS011;56108;48.730;9.304;2023-03-23T10:48:08;2.45;;;2.35;;
966;SDS011;56108;48.730;9.304;2023-03-23T10:50:22;3.75;;;2.47;;
966;SDS011;56108;48.730;9.304;2023-03-23T10:52:34;4.35;;;2.53;;
966;SDS011;56108;48.730;9.304;2023-03-23T10:54:46;2.78;;;2.53;;
966;SDS011;56108;48.730;9.304;2023-03-23T10:56:58;2.60;;;2.40;;
966;SDS011;56108;48.730;9.304;2023-03-23T10:59:14;2.53;;;2.30;;
966;SDS011;56108;48.730;9.304;2023-03-23T11:01:32;2.75;;;2.53;;
966;SDS011;56108;48.730;9.304;2023-03-23T11:03:42;2.60;;;2.40;;
966;SDS011;56108;48.730;9.304;2023-03-23T11:05:53;2.28;;;2.15;;
966;SDS011;56108;48.730;9.304;2023-03-23T11:08:09;3.78;;;2.30;;
966;SDS011;56108;48.730;9.304;2023-03-23T11:10:21;3.13;;;2.85;;
966;SDS011;56108;48.730;9.304;2023-03-23T11:12:33;3.45;;;2.75;;
966;SDS011;56108;48.730;9.304;2023-03-23T11:14:41;2.13;;;1.92;;
966;SDS011;56108;48.730;9.304;2023-03-23T11:16:52;2.30;;;2.15;;
966;SDS011;56108;48.730;9.304;2023-03-23T11:19:14;2.33;;;2.20;;
966;SDS011;56108;48.730;9.304;2023-03-23T11:21:24;2.65;;;2.45;;
966;SDS011;56108;48.730;9.304;2023-03-23T11:23:34;2.88;;;2.58;;
966;SDS011;56108;48.730;9.304;2023-03-23T11:25:56;2.90;;;2.70;;
966;SDS011;56108;48.730;9.304;2023-03-23T11:28:08;2.80;;;2.60;;
966;SDS011;56108;48.730;9.304;2023-03-23T11:30:24;3.25;;;2.95;;
966;SDS011;56108;48.730;9.304;2023-03-23T11:32:37;3.20;;;2.92;;
966;SDS011;56108;48.730;9.304;2023-03-23T11:34:53;2.55;;;2.45;;
966;SDS011;56108;48.730;9.304;2023-03-23T11:37:24;3.00;;;2.40;;
966;SDS011;56108;48.730;9.304;2023-03-23T11:39:45;3.03;;;2.83;;
966;SDS011;56108;48.730;9.304;2023-03-23T11:41:56;4.00;;;3.70;;
966;SDS011;56108;48.730;9.304;2023-03-23T11:44:13;4.10;;;3.80;;
966;SDS011;56108;48.730;9.304;2023-03-23T11:46:24;5.43;;;3.30;;
966;SDS011;56108;48.730;9.304;2023-03-23T11:48:43;4.15;;;3.15;;
966;SDS011;56108;48.730;9.304;2023-03-23T11:50:54;3.00;;;2.80;;
966;SDS011;56108;48.730;9.304;2023-03-23T11:53:08;5.00;;;4.50;;
966;SDS011;56108;48.730;9.304;2023-03-23T11:55:20;4.53;;;3.45;;
966;SDS011;56108;48.730;9.304;2023-03-23T11:57:34;4.60;;;4.20;;
966;SDS011;56108;48.730;9.304;2023-03-23T11:59:43;9.27;;;8.38;;
966;SDS011;56108;48.730;9.304;2023-03-23T12:01:53;7.78;;;7.18;;
966;SDS011;56108;48.730;9.304;2023-03-23T12:07:07;3.42;;;3.22;;
966;SDS011;56108;48.730;9.304;2023-03-23T12:09:27;3.25;;;3.00;;
966;SDS011;56108;48.730;9.304;2023-03-23T12:11:48;3.17;;;2.97;;
966;SDS011;56108;48.730;9.304;2023-03-23T12:14:08;5.30;;;4.32;;
966;SDS011;56108;48.730;9.304;2023-03-23T12:16:27;6.97;;;3.97;;
966;SDS011;56108;48.730;9.304;2023-03-23T12:18:46;5.07;;;4.68;;
966;SDS011;56108;48.730;9.304;2023-03-23T12:21:04;3.05;;;2.75;;
966;SDS011;56108;48.730;9.304;2023-03-23T12:23:22;4.15;;;2.88;;
966;SDS011;56108;48.730;9.304;2023-03-23T12:25:43;3.22;;;2.30;;
966;SDS011;56108;48.730;9.304;2023-03-23T12:28:13;4.00;;;2.78;;
966;SDS011;56108;48.730;9.304;2023-03-23T12:30:29;2.47;;;2.28;;
966;SDS011;56108;48.730;9.304;2023-03-23T12:32:46;2.67;;;2.58;;
966;SDS011;56108;48.730;9.304;2023-03-23T12:35:04;2.60;;;2.50;;
966;SDS011;56108;48.730;9.304;2023-03-23T12:37:33;2.85;;;2.65;;
966;SDS011;56108;48.730;9.304;2023-03-23T12:39:50;2.90;;;2.70;;
966;SDS011;56108;48.730;9.304;2023-03-23T12:42:14;2.70;;;2.50;;
966;SDS011;56108;48.730;9.304;2023-03-23T12:44:31;2.58;;;2.47;;
966;SDS011;56108;48.730;9.304;2023-03-23T12:46:49;2.78;;;2.58;;
966;SDS011;56108;48.730;9.304;2023-03-23T12:49:12;2.70;;;2.30;;
966;SDS011;56108;48.730;9.304;2023-03-23T12:51:26;2.70;;;2.50;;
966;SDS011;56108;48.730;9.304;2023-03-23T12:53:43;2.63;;;2.42;;
966;SDS011;56108;48.730;9.304;2023-03-23T12:56:06;2.70;;;2.50;;
966;SDS011;56108;48.730;9.304;2023-03-23T12:58:20;2.30;;;2.20;;
966;SDS011;56108;48.730;9.304;2023-03-23T13:00:46;3.00;;;2.90;;
966;SDS011;56108;48.730;9.304;2023-03-23T13:03:01;2.70;;;2.45;;
966;SDS011;56108;48.730;9.304;2023-03-23T13:05:26;3.60;;;3.30;;
966;SDS011;56108;48.730;9.304;2023-03-23T13:07:41;3.20;;;3.00;;
966;SDS011;56108;48.730;9.304;2023-03-23T13:09:58;2.92;;;2.72;;
966;SDS011;56108;48.730;9.304;2023-03-23T13:12:11;3.10;;;2.90;;
966;SDS011;56108;48.730;9.304;2023-03-23T13:14:24;2.40;;;2.30;;
966;SDS011;56108;48.730;9.304;2023-03-23T13:16:41;2.75;;;2.50;;
966;SDS011;56108;48.730;9.304;2023-03-23T13:18:58;3.13;;;2.92;;
966;SDS011;56108;48.730;9.304;2023-03-23T13:21:16;3.70;;;3.40;;
966;SDS011;56108;48.730;9.304;2023-03-23T13:23:31;3.17;;;2.80;;
966;SDS011;56108;48.730;9.304;2023-03-23T13:25:52;2.60;;;2.40;;
966;SDS011;56108;48.730;9.304;2023-03-23T13:28:04;2.97;;;2.70;;
966;SDS011;56108;48.730;9.304;2023-03-23T13:30:19;2.95;;;2.75;;
966;SDS011;56108;48.730;9.304;2023-03-23T13:32:32;3.30;;;3.10;;
966;SDS011;56108;48.730;9.304;2023-03-23T13:34:47;4.15;;;3.85;;
966;SDS011;56108;48.730;9.304;2023-03-23T13:36:56;2.47;;;2.38;;
966;SDS011;56108;48.730;9.304;2023-03-23T13:39:16;2.83;;;2.63;;
966;SDS011;56108;48.730;9.304;2023-03-23T13:41:31;3.00;;;2.60;;
966;SDS011;56108;48.730;9.304;2023-03-23T13:43:40;3.00;;;2.80;;
966;SDS011;56108;48.730;9.304;2023-03-23T13:45:51;2.58;;;2.45;;
966;SDS011;56108;48.730;9.304;2023-03-23T13:48:04;2.35;;;2.25;;
966;SDS011;56108;48.730;9.304;2023-03-23T13:50:26;2.83;;;2.63;;
966;SDS011;56108;48.730;9.304;2023-03-23T13:52:37;2.35;;;2.25;;
966;SDS011;56108;48.730;9.304;2023-03-23T13:54:46;2.85;;;2.55;;
966;SDS011;56108;48.730;9.304;2023-03-23T13:56:58;2.88;;;2.67;;
966;SDS011;56108;48.730;9.304;2023-03-23T13:59:13;4.13;;;2.65;;
966;SDS011;56108;48.730;9.304;2023-03-23T14:01:30;2.75;;;2.55;;
966;SDS011;56108;48.730;9.304;2023-03-23T14:03:41;2.42;;;2.30;;
966;SDS011;56108;48.730;9.304;2023-03-23T14:06:03;2.88;;;2.63;;
966;SDS011;56108;48.730;9.304;2023-03-23T14:08:39;3.03;;;2.83;;